sensor_id;sensor_type;location;lat;lon;timestamp;temperature;humidity
78475;SHT31;67766;51.964;5.660;2023-10-13T00:00:40;19.3;80.3
78475;SHT31;67766;51.964;5.660;2023-10-13T00:03:11;19.3;80.3
78475;SHT31;67766;51.964;5.660;2023-10-13T00:05:44;19.3;80.3
78475;SHT31;67766;51.964;5.660;2023-10-13T00:08:15;19.3;80.4
78475;SHT31;67766;51.964;5.660;2023-10-13T00:10:45;19.3;80.4
78475;SHT31;67766;51.964;5.660;2023-10-13T00:13:16;19.3;80.4
78475;SHT31;67766;51.964;5.660;2023-10-13T00:15:48;19.3;80.5
78475;SHT31;67766;51.964;5.660;2023-10-13T00:18:25;19.3;80.6
78475;SHT31;67766;51.964;5.660;2023-10-13T00:21:00;19.3;80.6
78475;SHT31;67766;51.964;5.660;2023-10-13T00:23:37;19.3;80.5
78475;SHT31;67766;51.964;5.660;2023-10-13T00:26:10;19.2;80.6
78475;SHT31;67766;51.964;5.660;2023-10-13T00:28:45;19.2;80.6
78475;SHT31;67766;51.964;5.660;2023-10-13T00:31:15;19.2;80.4
78475;SHT31;67766;51.964;5.660;2023-10-13T00:33:45;19.2;80.2
78475;SHT31;67766;51.964;5.660;2023-10-13T00:36:14;19.2;80.3
78475;SHT31;67766;51.964;5.660;2023-10-13T00:38:47;19.2;80.2
78475;SHT31;67766;51.964;5.660;2023-10-13T00:41:19;19.2;80.2
78475;SHT31;67766;51.964;5.660;2023-10-13T00:43:53;19.2;80.3
78475;SHT31;67766;51.964;5.660;2023-10-13T00:46:36;19.2;80.4
78475;SHT31;67766;51.964;5.660;2023-10-13T00:49:07;19.2;80.6
78475;SHT31;67766;51.964;5.660;2023-10-13T00:51:38;19.2;80.5
78475;SHT31;67766;51.964;5.660;2023-10-13T00:54:09;19.2;80.7
78475;SHT31;67766;51.964;5.660;2023-10-13T00:56:41;19.2;80.8
78475;SHT31;67766;51.964;5.660;2023-10-13T00:59:16;19.2;80.8
78475;SHT31;67766;51.964;5.660;2023-10-13T01:01:51;19.2;80.8
78475;SHT31;67766;51.964;5.660;2023-10-13T01:04:22;19.2;80.8
78475;SHT31;67766;51.964;5.660;2023-10-13T01:06:55;19.2;80.8
78475;SHT31;67766;51.964;5.660;2023-10-13T01:09:25;19.2;80.8
78475;SHT31;67766;51.964;5.660;2023-10-13T01:11:54;19.2;80.7
78475;SHT31;67766;51.964;5.660;2023-10-13T01:14:30;19.2;80.6
78475;SHT31;67766;51.964;5.660;2023-10-13T01:17:00;19.2;80.5
78475;SHT31;67766;51.964;5.660;2023-10-13T01:19:35;19.2;80.5
78475;SHT31;67766;51.964;5.660;2023-10-13T01:22:06;19.2;80.5
78475;SHT31;67766;51.964;5.660;2023-10-13T01:24:35;19.2;80.5
78475;SHT31;67766;51.964;5.660;2023-10-13T01:27:06;19.2;80.4
78475;SHT31;67766;51.964;5.660;2023-10-13T01:29:42;19.1;80.4
78475;SHT31;67766;51.964;5.660;2023-10-13T01:32:16;19.1;80.3
78475;SHT31;67766;51.964;5.660;2023-10-13T01:34:46;19.1;80.4
78475;SHT31;67766;51.964;5.660;2023-10-13T01:37:17;19.1;80.5
78475;SHT31;67766;51.964;5.660;2023-10-13T01:39:46;19.1;80.5
78475;SHT31;67766;51.964;5.660;2023-10-13T01:42:16;19.1;80.6
78475;SHT31;67766;51.964;5.660;2023-10-13T01:44:49;19.1;80.6
78475;SHT31;67766;51.964;5.660;2023-10-13T01:47:18;19.1;80.6
78475;SHT31;67766;51.964;5.660;2023-10-13T01:49:50;19.1;80.5
78475;SHT31;67766;51.964;5.660;2023-10-13T01:52:19;19.1;80.5
78475;SHT31;67766;51.964;5.660;2023-10-13T01:54:49;19.1;80.4
78475;SHT31;67766;51.964;5.660;2023-10-13T01:57:21;19.1;80.3
78475;SHT31;67766;51.964;5.660;2023-10-13T01:59:51;19.1;80.3
78475;SHT31;67766;51.964;5.660;2023-10-13T02:02:22;19.1;80.2
78475;SHT31;67766;51.964;5.660;2023-10-13T02:04:58;19.1;80.0
78475;SHT31;67766;51.964;5.660;2023-10-13T02:07:28;19.1;80.0
78475;SHT31;67766;51.964;5.660;2023-10-13T02:10:01;19.1;80.1
78475;SHT31;67766;51.964;5.660;2023-10-13T02:12:33;19.1;80.2
78475;SHT31;67766;51.964;5.660;2023-10-13T02:15:11;19.1;80.3
78475;SHT31;67766;51.964;5.660;2023-10-13T02:17:46;19.1;80.2
78475;SHT31;67766;51.964;5.660;2023-10-13T02:20:19;19.1;80.2
78475;SHT31;67766;51.964;5.660;2023-10-13T02:22:51;19.1;80.2
78475;SHT31;67766;51.964;5.660;2023-10-13T02:25:21;19.1;80.2
78475;SHT31;67766;51.964;5.660;2023-10-13T02:28:09;19.1;80.2
78475;SHT31;67766;51.964;5.660;2023-10-13T02:30:49;19.1;80.4
78475;SHT31;67766;51.964;5.660;2023-10-13T02:33:20;19.1;80.3
78475;SHT31;67766;51.964;5.660;2023-10-13T02:35:56;19.1;80.3
78475;SHT31;67766;51.964;5.660;2023-10-13T02:38:26;19.1;80.2
78475;SHT31;67766;51.964;5.660;2023-10-13T02:41:01;19.1;80.2
78475;SHT31;67766;51.964;5.660;2023-10-13T02:43:36;19.1;80.0
78475;SHT31;67766;51.964;5.660;2023-10-13T02:46:06;19.1;80.0
78475;SHT31;67766;51.964;5.660;2023-10-13T02:48:37;19.1;79.9
78475;SHT31;67766;51.964;5.660;2023-10-13T02:51:09;19.1;79.9
78475;SHT31;67766;51.964;5.660;2023-10-13T02:53:46;19.1;79.8
78475;SHT31;67766;51.964;5.660;2023-10-13T02:56:17;19.1;79.8
78475;SHT31;67766;51.964;5.660;2023-10-13T02:58:50;19.1;79.7
78475;SHT31;67766;51.964;5.660;2023-10-13T03:01:24;19.1;79.7
78475;SHT31;67766;51.964;5.660;2023-10-13T03:03:56;19.1;79.6
78475;SHT31;67766;51.964;5.660;2023-10-13T03:06:27;19.1;79.7
78475;SHT31;67766;51.964;5.660;2023-10-13T03:09:03;19.1;79.6
78475;SHT31;67766;51.964;5.660;2023-10-13T03:11:45;19.1;79.6
78475;SHT31;67766;51.964;5.660;2023-10-13T03:14:18;19.1;79.5
78475;SHT31;67766;51.964;5.660;2023-10-13T03:16:57;19.1;79.5
78475;SHT31;67766;51.964;5.660;2023-10-13T03:19:33;19.1;79.4
78475;SHT31;67766;51.964;5.660;2023-10-13T03:22:08;19.1;79.5
78475;SHT31;67766;51.964;5.660;2023-10-13T03:24:40;19.1;79.6
78475;SHT31;67766;51.964;5.660;2023-10-13T03:27:13;19.1;79.8
78475;SHT31;67766;51.964;5.660;2023-10-13T03:29:46;19.1;79.8
78475;SHT31;67766;51.964;5.660;2023-10-13T03:32:20;19.1;80.0
78475;SHT31;67766;51.964;5.660;2023-10-13T03:34:53;19.1;80.0
78475;SHT31;67766;51.964;5.660;2023-10-13T03:37:28;19.1;80.2
78475;SHT31;67766;51.964;5.660;2023-10-13T03:40:09;19.1;80.3
78475;SHT31;67766;51.964;5.660;2023-10-13T03:42:52;19.0;80.5
78475;SHT31;67766;51.964;5.660;2023-10-13T03:45:28;19.0;80.8
78475;SHT31;67766;51.964;5.660;2023-10-13T03:48:02;19.0;81.0
78475;SHT31;67766;51.964;5.660;2023-10-13T03:50:37;19.0;81.1
78475;SHT31;67766;51.964;5.660;2023-10-13T03:53:12;19.0;81.2
78475;SHT31;67766;51.964;5.660;2023-10-13T03:55:42;19.0;81.3
78475;SHT31;67766;51.964;5.660;2023-10-13T03:58:15;19.0;81.4
78475;SHT31;67766;51.964;5.660;2023-10-13T04:00:46;18.9;81.7
78475;SHT31;67766;51.964;5.660;2023-10-13T04:03:17;18.9;81.8
78475;SHT31;67766;51.964;5.660;2023-10-13T04:05:52;18.9;81.9
78475;SHT31;67766;51.964;5.660;2023-10-13T04:08:33;18.9;81.9
78475;SHT31;67766;51.964;5.660;2023-10-13T04:12:24;18.9;81.9
78475;SHT31;67766;51.964;5.660;2023-10-13T04:15:45;18.9;82.2
78475;SHT31;67766;51.964;5.660;2023-10-13T04:18:35;18.8;82.3
78475;SHT31;67766;51.964;5.660;2023-10-13T04:21:22;18.8;82.4
78475;SHT31;67766;51.964;5.660;2023-10-13T04:24:08;18.8;82.6
78475;SHT31;67766;51.964;5.660;2023-10-13T04:26:43;18.8;82.5
78475;SHT31;67766;51.964;5.660;2023-10-13T04:29:18;18.8;82.6
78475;SHT31;67766;51.964;5.660;2023-10-13T04:32:01;18.8;82.7
78475;SHT31;67766;51.964;5.660;2023-10-13T04:34:36;18.8;83.0
78475;SHT31;67766;51.964;5.660;2023-10-13T04:37:08;18.8;83.1
78475;SHT31;67766;51.964;5.660;2023-10-13T04:39:56;18.8;83.3
78475;SHT31;67766;51.964;5.660;2023-10-13T04:42:32;18.8;83.3
78475;SHT31;67766;51.964;5.660;2023-10-13T04:45:21;18.8;83.4
78475;SHT31;67766;51.964;5.660;2023-10-13T04:48:13;18.8;83.5
78475;SHT31;67766;51.964;5.660;2023-10-13T04:50:47;18.8;83.5
78475;SHT31;67766;51.964;5.660;2023-10-13T04:53:18;18.9;83.6
78475;SHT31;67766;51.964;5.660;2023-10-13T04:56:11;18.9;83.8
78475;SHT31;67766;51.964;5.660;2023-10-13T04:59:12;18.9;84.1
78475;SHT31;67766;51.964;5.660;2023-10-13T05:01:45;18.9;84.5
78475;SHT31;67766;51.964;5.660;2023-10-13T05:04:31;18.9;84.9
78475;SHT31;67766;51.964;5.660;2023-10-13T05:07:12;18.9;85.2
78475;SHT31;67766;51.964;5.660;2023-10-13T05:09:58;18.9;85.6
78475;SHT31;67766;51.964;5.660;2023-10-13T05:13:46;18.9;86.0
78475;SHT31;67766;51.964;5.660;2023-10-13T05:16:32;18.9;86.2
78475;SHT31;67766;51.964;5.660;2023-10-13T05:19:17;18.9;86.4
78475;SHT31;67766;51.964;5.660;2023-10-13T05:22:03;18.9;86.7
78475;SHT31;67766;51.964;5.660;2023-10-13T05:24:49;18.9;86.8
78475;SHT31;67766;51.964;5.660;2023-10-13T05:27:35;18.9;86.8
78475;SHT31;67766;51.964;5.660;2023-10-13T05:31:35;19.0;86.8
78475;SHT31;67766;51.964;5.660;2023-10-13T05:34:21;19.0;86.8
78475;SHT31;67766;51.964;5.660;2023-10-13T05:38:10;19.0;86.5
78475;SHT31;67766;51.964;5.660;2023-10-13T05:40:58;19.1;86.1
78475;SHT31;67766;51.964;5.660;2023-10-13T05:43:44;19.1;85.5
78475;SHT31;67766;51.964;5.660;2023-10-13T05:46:31;19.2;85.2
78475;SHT31;67766;51.964;5.660;2023-10-13T05:49:23;19.2;84.8
78475;SHT31;67766;51.964;5.660;2023-10-13T05:52:20;19.3;84.2
78475;SHT31;67766;51.964;5.660;2023-10-13T05:56:47;19.4;83.7
78475;SHT31;67766;51.964;5.660;2023-10-13T05:59:35;19.5;83.7
78475;SHT31;67766;51.964;5.660;2023-10-13T06:02:24;19.5;83.7
78475;SHT31;67766;51.964;5.660;2023-10-13T06:05:12;19.6;83.8
78475;SHT31;67766;51.964;5.660;2023-10-13T06:07:58;19.6;83.7
78475;SHT31;67766;51.964;5.660;2023-10-13T06:10:47;19.6;83.6
78475;SHT31;67766;51.964;5.660;2023-10-13T06:13:33;19.6;83.4
78475;SHT31;67766;51.964;5.660;2023-10-13T06:16:19;19.7;83.3
78475;SHT31;67766;51.964;5.660;2023-10-13T06:19:04;19.7;83.2
78475;SHT31;67766;51.964;5.660;2023-10-13T06:21:52;19.7;82.8
78475;SHT31;67766;51.964;5.660;2023-10-13T06:24:38;19.7;82.9
78475;SHT31;67766;51.964;5.660;2023-10-13T06:27:23;19.7;82.9
78475;SHT31;67766;51.964;5.660;2023-10-13T06:30:10;19.7;83.0
78475;SHT31;67766;51.964;5.660;2023-10-13T06:32:41;19.7;83.1
78475;SHT31;67766;51.964;5.660;2023-10-13T06:35:15;19.7;83.1
78475;SHT31;67766;51.964;5.660;2023-10-13T06:37:50;19.8;82.9
78475;SHT31;67766;51.964;5.660;2023-10-13T06:40:21;19.8;82.9
78475;SHT31;67766;51.964;5.660;2023-10-13T06:43:00;19.8;82.8
78475;SHT31;67766;51.964;5.660;2023-10-13T06:45:44;19.8;83.0
78475;SHT31;67766;51.964;5.660;2023-10-13T06:48:18;19.8;83.0
78475;SHT31;67766;51.964;5.660;2023-10-13T06:50:50;19.8;83.0
78475;SHT31;67766;51.964;5.660;2023-10-13T06:53:25;19.8;82.9
78475;SHT31;67766;51.964;5.660;2023-10-13T06:55:57;19.8;83.1
78475;SHT31;67766;51.964;5.660;2023-10-13T06:58:27;19.8;83.0
78475;SHT31;67766;51.964;5.660;2023-10-13T07:00:57;19.8;83.1
78475;SHT31;67766;51.964;5.660;2023-10-13T07:03:31;19.8;83.1
78475;SHT31;67766;51.964;5.660;2023-10-13T07:06:05;19.7;83.1
78475;SHT31;67766;51.964;5.660;2023-10-13T07:08:38;19.7;83.3
78475;SHT31;67766;51.964;5.660;2023-10-13T07:11:08;19.7;83.2
78475;SHT31;67766;51.964;5.660;2023-10-13T07:13:42;19.7;83.2
78475;SHT31;67766;51.964;5.660;2023-10-13T07:16:19;19.7;82.9
78475;SHT31;67766;51.964;5.660;2023-10-13T07:18:50;19.7;82.7
78475;SHT31;67766;51.964;5.660;2023-10-13T07:21:24;19.7;82.6
78475;SHT31;67766;51.964;5.660;2023-10-13T07:23:58;19.8;82.5
78475;SHT31;67766;51.964;5.660;2023-10-13T07:26:37;19.8;81.9
78475;SHT31;67766;51.964;5.660;2023-10-13T07:29:11;19.8;81.7
78475;SHT31;67766;51.964;5.660;2023-10-13T07:31:41;19.8;81.4
78475;SHT31;67766;51.964;5.660;2023-10-13T07:34:12;19.8;81.4
78475;SHT31;67766;51.964;5.660;2023-10-13T07:36:46;19.8;81.6
78475;SHT31;67766;51.964;5.660;2023-10-13T07:39:17;19.8;81.7
78475;SHT31;67766;51.964;5.660;2023-10-13T07:41:52;19.8;81.6
78475;SHT31;67766;51.964;5.660;2023-10-13T07:44:28;19.8;81.7
78475;SHT31;67766;51.964;5.660;2023-10-13T07:47:01;19.8;81.8
78475;SHT31;67766;51.964;5.660;2023-10-13T07:49:33;19.8;81.9
78475;SHT31;67766;51.964;5.660;2023-10-13T07:52:06;19.8;81.9
78475;SHT31;67766;51.964;5.660;2023-10-13T07:54:50;19.8;82.2
78475;SHT31;67766;51.964;5.660;2023-10-13T07:57:26;19.8;82.2
78475;SHT31;67766;51.964;5.660;2023-10-13T07:59:58;19.8;82.3
78475;SHT31;67766;51.964;5.660;2023-10-13T08:02:38;19.8;82.1
78475;SHT31;67766;51.964;5.660;2023-10-13T08:05:18;19.8;82.0
78475;SHT31;67766;51.964;5.660;2023-10-13T08:07:58;19.8;81.9
78475;SHT31;67766;51.964;5.660;2023-10-13T08:10:27;19.8;81.9
78475;SHT31;67766;51.964;5.660;2023-10-13T08:12:57;19.8;82.1
78475;SHT31;67766;51.964;5.660;2023-10-13T08:15:27;19.8;81.6
78475;SHT31;67766;51.964;5.660;2023-10-13T08:18:01;19.8;81.6
78475;SHT31;67766;51.964;5.660;2023-10-13T08:20:41;19.8;81.8
78475;SHT31;67766;51.964;5.660;2023-10-13T08:23:11;19.9;81.8
78475;SHT31;67766;51.964;5.660;2023-10-13T08:25:47;19.9;81.4
78475;SHT31;67766;51.964;5.660;2023-10-13T08:29:48;19.9;81.3
78475;SHT31;67766;51.964;5.660;2023-10-13T08:32:53;20.0;80.7
78475;SHT31;67766;51.964;5.660;2023-10-13T08:35:26;20.0;80.7
78475;SHT31;67766;51.964;5.660;2023-10-13T08:38:05;20.1;79.9
78475;SHT31;67766;51.964;5.660;2023-10-13T08:40:52;20.2;79.4
78475;SHT31;67766;51.964;5.660;2023-10-13T08:44:02;20.2;78.3
78475;SHT31;67766;51.964;5.660;2023-10-13T08:46:33;20.3;78.5
78475;SHT31;67766;51.964;5.660;2023-10-13T08:49:32;20.4;77.4
78475;SHT31;67766;51.964;5.660;2023-10-13T08:52:09;20.4;76.3
78475;SHT31;67766;51.964;5.660;2023-10-13T08:55:16;20.5;75.3
78475;SHT31;67766;51.964;5.660;2023-10-13T08:58:52;20.6;74.2
78475;SHT31;67766;51.964;5.660;2023-10-13T09:01:44;20.7;74.8
78475;SHT31;67766;51.964;5.660;2023-10-13T09:04:17;20.7;75.0
78475;SHT31;67766;51.964;5.660;2023-10-13T09:06:59;20.8;73.3
78475;SHT31;67766;51.964;5.660;2023-10-13T09:09:49;20.8;73.8
78475;SHT31;67766;51.964;5.660;2023-10-13T09:12:35;20.9;73.3
78475;SHT31;67766;51.964;5.660;2023-10-13T09:15:09;20.9;72.8
78475;SHT31;67766;51.964;5.660;2023-10-13T09:17:51;21.0;73.4
78475;SHT31;67766;51.964;5.660;2023-10-13T09:20:30;21.0;73.1
78475;SHT31;67766;51.964;5.660;2023-10-13T09:23:10;21.1;72.5
78475;SHT31;67766;51.964;5.660;2023-10-13T09:25:40;21.1;72.4
78475;SHT31;67766;51.964;5.660;2023-10-13T09:28:28;21.1;72.0
78475;SHT31;67766;51.964;5.660;2023-10-13T09:30:58;21.1;71.6
78475;SHT31;67766;51.964;5.660;2023-10-13T09:33:29;21.1;71.3
78475;SHT31;67766;51.964;5.660;2023-10-13T09:36:04;21.1;71.4
78475;SHT31;67766;51.964;5.660;2023-10-13T09:38:36;21.2;71.3
78475;SHT31;67766;51.964;5.660;2023-10-13T09:41:08;21.2;71.2
78475;SHT31;67766;51.964;5.660;2023-10-13T09:43:48;21.2;70.8
78475;SHT31;67766;51.964;5.660;2023-10-13T09:46:20;21.2;70.3
78475;SHT31;67766;51.964;5.660;2023-10-13T09:48:57;21.2;70.7
78475;SHT31;67766;51.964;5.660;2023-10-13T09:51:35;21.3;70.2
78475;SHT31;67766;51.964;5.660;2023-10-13T09:54:13;21.3;70.2
78475;SHT31;67766;51.964;5.660;2023-10-13T09:56:50;21.3;70.0
78475;SHT31;67766;51.964;5.660;2023-10-13T09:59:31;21.4;69.8
78475;SHT31;67766;51.964;5.660;2023-10-13T10:02:06;21.4;69.5
78475;SHT31;67766;51.964;5.660;2023-10-13T10:04:38;21.4;68.9
78475;SHT31;67766;51.964;5.660;2023-10-13T10:07:25;21.5;68.7
78475;SHT31;67766;51.964;5.660;2023-10-13T10:09:59;21.5;69.0
78475;SHT31;67766;51.964;5.660;2023-10-13T10:12:41;21.5;68.6
78475;SHT31;67766;51.964;5.660;2023-10-13T10:15:26;21.5;68.3
78475;SHT31;67766;51.964;5.660;2023-10-13T10:18:02;21.6;68.1
78475;SHT31;67766;51.964;5.660;2023-10-13T10:20:35;21.6;67.9
78475;SHT31;67766;51.964;5.660;2023-10-13T10:23:21;21.6;67.9
78475;SHT31;67766;51.964;5.660;2023-10-13T10:25:49;21.6;68.0
78475;SHT31;67766;51.964;5.660;2023-10-13T10:28:19;21.6;67.4
78475;SHT31;67766;51.964;5.660;2023-10-13T10:30:48;21.7;67.2
78475;SHT31;67766;51.964;5.660;2023-10-13T10:33:18;21.7;66.9
78475;SHT31;67766;51.964;5.660;2023-10-13T10:36:00;21.7;67.0
78475;SHT31;67766;51.964;5.660;2023-10-13T10:38:32;21.7;67.5
78475;SHT31;67766;51.964;5.660;2023-10-13T10:41:06;21.7;67.9
78475;SHT31;67766;51.964;5.660;2023-10-13T10:43:41;21.7;67.4
78475;SHT31;67766;51.964;5.660;2023-10-13T10:46:14;21.8;67.3
78475;SHT31;67766;51.964;5.660;2023-10-13T10:48:45;21.8;66.7
78475;SHT31;67766;51.964;5.660;2023-10-13T10:51:15;21.8;66.3
78475;SHT31;67766;51.964;5.660;2023-10-13T10:53:49;21.9;66.4
78475;SHT31;67766;51.964;5.660;2023-10-13T10:56:23;21.9;66.7
78475;SHT31;67766;51.964;5.660;2023-10-13T10:58:59;21.9;66.2
78475;SHT31;67766;51.964;5.660;2023-10-13T11:01:29;22.0;66.3
78475;SHT31;67766;51.964;5.660;2023-10-13T11:04:07;22.0;66.0
78475;SHT31;67766;51.964;5.660;2023-10-13T11:06:50;22.0;65.7
78475;SHT31;67766;51.964;5.660;2023-10-13T11:09:26;22.1;65.4
78475;SHT31;67766;51.964;5.660;2023-10-13T11:12:12;22.1;65.1
78475;SHT31;67766;51.964;5.660;2023-10-13T11:15:04;22.2;65.1
78475;SHT31;67766;51.964;5.660;2023-10-13T11:17:42;22.2;65.1
78475;SHT31;67766;51.964;5.660;2023-10-13T11:20:19;22.2;63.9
78475;SHT31;67766;51.964;5.660;2023-10-13T11:23:00;22.3;63.3
78475;SHT31;67766;51.964;5.660;2023-10-13T11:25:32;22.3;62.9
78475;SHT31;67766;51.964;5.660;2023-10-13T11:28:15;22.3;62.5
78475;SHT31;67766;51.964;5.660;2023-10-13T11:30:48;22.3;62.4
78475;SHT31;67766;51.964;5.660;2023-10-13T11:33:19;22.3;61.9
78475;SHT31;67766;51.964;5.660;2023-10-13T11:35:51;22.3;61.1
78475;SHT31;67766;51.964;5.660;2023-10-13T11:38:27;22.3;61.3
78475;SHT31;67766;51.964;5.660;2023-10-13T11:41:03;22.4;61.5
78475;SHT31;67766;51.964;5.660;2023-10-13T11:43:45;22.4;60.9
78475;SHT31;67766;51.964;5.660;2023-10-13T11:46:31;22.4;61.2
78475;SHT31;67766;51.964;5.660;2023-10-13T11:50:08;22.4;61.0
78475;SHT31;67766;51.964;5.660;2023-10-13T11:52:38;22.5;60.8
78475;SHT31;67766;51.964;5.660;2023-10-13T11:55:08;22.5;60.4
78475;SHT31;67766;51.964;5.660;2023-10-13T11:57:37;22.5;61.2
78475;SHT31;67766;51.964;5.660;2023-10-13T12:00:08;22.5;61.6
78475;SHT31;67766;51.964;5.660;2023-10-13T12:02:51;22.5;61.8
78475;SHT31;67766;51.964;5.660;2023-10-13T12:05:36;22.6;62.4
78475;SHT31;67766;51.964;5.660;2023-10-13T12:08:23;22.6;62.0
78475;SHT31;67766;51.964;5.660;2023-10-13T12:10:58;22.7;61.8
78475;SHT31;67766;51.964;5.660;2023-10-13T12:13:34;22.7;61.7
78475;SHT31;67766;51.964;5.660;2023-10-13T12:16:07;22.8;61.5
78475;SHT31;67766;51.964;5.660;2023-10-13T12:18:37;22.8;60.9
78475;SHT31;67766;51.964;5.660;2023-10-13T12:21:10;22.8;61.3
78475;SHT31;67766;51.964;5.660;2023-10-13T12:23:45;22.9;60.8
78475;SHT31;67766;51.964;5.660;2023-10-13T12:26:14;22.9;61.1
78475;SHT31;67766;51.964;5.660;2023-10-13T12:28:48;22.9;61.1
78475;SHT31;67766;51.964;5.660;2023-10-13T12:31:23;22.9;60.7
78475;SHT31;67766;51.964;5.660;2023-10-13T12:33:56;22.9;60.5
78475;SHT31;67766;51.964;5.660;2023-10-13T12:36:31;22.9;60.6
78475;SHT31;67766;51.964;5.660;2023-10-13T12:39:06;22.9;60.5
78475;SHT31;67766;51.964;5.660;2023-10-13T12:42:54;23.0;60.2
78475;SHT31;67766;51.964;5.660;2023-10-13T12:45:41;23.0;60.4
78475;SHT31;67766;51.964;5.660;2023-10-13T12:48:27;23.0;60.0
78475;SHT31;67766;51.964;5.660;2023-10-13T12:51:13;23.0;59.8
78475;SHT31;67766;51.964;5.660;2023-10-13T12:53:55;23.0;60.2
78475;SHT31;67766;51.964;5.660;2023-10-13T12:56:31;23.0;60.1
78475;SHT31;67766;51.964;5.660;2023-10-13T12:59:01;23.0;60.3
78475;SHT31;67766;51.964;5.660;2023-10-13T13:01:35;23.0;59.6
78475;SHT31;67766;51.964;5.660;2023-10-13T13:04:10;23.0;59.6
78475;SHT31;67766;51.964;5.660;2023-10-13T13:06:46;23.0;59.5
78475;SHT31;67766;51.964;5.660;2023-10-13T13:09:17;23.0;59.7
78475;SHT31;67766;51.964;5.660;2023-10-13T13:11:53;23.0;59.6
78475;SHT31;67766;51.964;5.660;2023-10-13T13:14:24;23.1;59.3
78475;SHT31;67766;51.964;5.660;2023-10-13T13:16:58;23.1;58.8
78475;SHT31;67766;51.964;5.660;2023-10-13T13:19:32;23.1;58.7
78475;SHT31;67766;51.964;5.660;2023-10-13T13:22:04;23.1;58.9
78475;SHT31;67766;51.964;5.660;2023-10-13T13:24:39;23.1;59.0
78475;SHT31;67766;51.964;5.660;2023-10-13T13:27:12;23.1;58.7
78475;SHT31;67766;51.964;5.660;2023-10-13T13:29:45;23.1;58.9
78475;SHT31;67766;51.964;5.660;2023-10-13T13:32:15;23.1;58.9
78475;SHT31;67766;51.964;5.660;2023-10-13T13:34:51;23.1;59.3
78475;SHT31;67766;51.964;5.660;2023-10-13T13:37:28;23.1;60.1
78475;SHT31;67766;51.964;5.660;2023-10-13T13:39:58;23.1;60.2
78475;SHT31;67766;51.964;5.660;2023-10-13T13:42:32;23.1;60.6
78475;SHT31;67766;51.964;5.660;2023-10-13T13:45:05;23.1;60.3
78475;SHT31;67766;51.964;5.660;2023-10-13T13:47:36;23.1;60.4
78475;SHT31;67766;51.964;5.660;2023-10-13T13:50:06;23.1;60.6
78475;SHT31;67766;51.964;5.660;2023-10-13T13:52:40;23.0;60.1
78475;SHT31;67766;51.964;5.660;2023-10-13T13:55:13;23.0;60.5
78475;SHT31;67766;51.964;5.660;2023-10-13T13:57:44;23.0;60.5
78475;SHT31;67766;51.964;5.660;2023-10-13T14:00:18;23.0;61.1
78475;SHT31;67766;51.964;5.660;2023-10-13T14:02:54;23.0;60.9
78475;SHT31;67766;51.964;5.660;2023-10-13T14:05:23;23.0;61.5
78475;SHT31;67766;51.964;5.660;2023-10-13T14:07:54;23.0;61.7
78475;SHT31;67766;51.964;5.660;2023-10-13T14:10:25;23.0;61.3
78475;SHT31;67766;51.964;5.660;2023-10-13T14:13:05;23.0;61.8
78475;SHT31;67766;51.964;5.660;2023-10-13T14:15:42;23.0;61.8
78475;SHT31;67766;51.964;5.660;2023-10-13T14:18:13;23.0;61.5
78475;SHT31;67766;51.964;5.660;2023-10-13T14:20:44;23.0;61.5
78475;SHT31;67766;51.964;5.660;2023-10-13T14:23:13;23.0;62.1
78475;SHT31;67766;51.964;5.660;2023-10-13T14:25:43;22.9;62.0
78475;SHT31;67766;51.964;5.660;2023-10-13T14:28:14;22.9;62.2
78475;SHT31;67766;51.964;5.660;2023-10-13T14:30:45;22.9;62.5
78475;SHT31;67766;51.964;5.660;2023-10-13T14:33:15;22.9;62.6
78475;SHT31;67766;51.964;5.660;2023-10-13T14:35:44;22.9;63.0
78475;SHT31;67766;51.964;5.660;2023-10-13T14:38:14;22.8;62.7
78475;SHT31;67766;51.964;5.660;2023-10-13T14:40:44;22.8;62.8
78475;SHT31;67766;51.964;5.660;2023-10-13T14:43:15;22.8;63.5
78475;SHT31;67766;51.964;5.660;2023-10-13T14:45:49;22.8;63.9
78475;SHT31;67766;51.964;5.660;2023-10-13T14:48:19;22.8;63.9
78475;SHT31;67766;51.964;5.660;2023-10-13T14:50:51;22.8;63.9
78475;SHT31;67766;51.964;5.660;2023-10-13T14:53:21;22.8;64.5
78475;SHT31;67766;51.964;5.660;2023-10-13T14:55:50;22.7;64.2
78475;SHT31;67766;51.964;5.660;2023-10-13T14:58:22;22.7;64.4
78475;SHT31;67766;51.964;5.660;2023-10-13T15:00:54;22.7;64.4
78475;SHT31;67766;51.964;5.660;2023-10-13T15:03:26;22.7;64.7
78475;SHT31;67766;51.964;5.660;2023-10-13T15:05:56;22.7;64.7
78475;SHT31;67766;51.964;5.660;2023-10-13T15:08:25;22.6;64.7
78475;SHT31;67766;51.964;5.660;2023-10-13T15:10:55;22.6;64.5
78475;SHT31;67766;51.964;5.660;2023-10-13T15:13:26;22.6;64.7
78475;SHT31;67766;51.964;5.660;2023-10-13T15:15:56;22.5;65.2
78475;SHT31;67766;51.964;5.660;2023-10-13T15:18:26;22.5;65.1
78475;SHT31;67766;51.964;5.660;2023-10-13T15:20:55;22.5;65.4
78475;SHT31;67766;51.964;5.660;2023-10-13T15:23:25;22.4;66.2
78475;SHT31;67766;51.964;5.660;2023-10-13T15:26:03;22.4;65.8
78475;SHT31;67766;51.964;5.660;2023-10-13T15:28:37;22.4;66.2
78475;SHT31;67766;51.964;5.660;2023-10-13T15:31:15;22.3;66.0
78475;SHT31;67766;51.964;5.660;2023-10-13T15:34:03;22.3;66.5
78475;SHT31;67766;51.964;5.660;2023-10-13T15:36:34;22.2;66.9
78475;SHT31;67766;51.964;5.660;2023-10-13T15:39:05;22.2;67.0
78475;SHT31;67766;51.964;5.660;2023-10-13T15:41:38;22.2;66.8
78475;SHT31;67766;51.964;5.660;2023-10-13T15:44:10;22.1;67.2
78475;SHT31;67766;51.964;5.660;2023-10-13T15:46:40;22.1;67.2
78475;SHT31;67766;51.964;5.660;2023-10-13T15:49:11;22.1;67.5
78475;SHT31;67766;51.964;5.660;2023-10-13T15:51:42;22.1;67.6
78475;SHT31;67766;51.964;5.660;2023-10-13T15:54:12;22.0;67.3
78475;SHT31;67766;51.964;5.660;2023-10-13T15:56:45;22.0;67.4
78475;SHT31;67766;51.964;5.660;2023-10-13T15:59:15;22.0;67.7
78475;SHT31;67766;51.964;5.660;2023-10-13T16:01:45;22.0;67.7
78475;SHT31;67766;51.964;5.660;2023-10-13T16:04:15;22.0;67.5
78475;SHT31;67766;51.964;5.660;2023-10-13T16:06:46;22.0;67.3
78475;SHT31;67766;51.964;5.660;2023-10-13T16:09:17;22.0;67.4
78475;SHT31;67766;51.964;5.660;2023-10-13T16:11:51;22.0;67.1
78475;SHT31;67766;51.964;5.660;2023-10-13T16:14:21;22.0;66.4
78475;SHT31;67766;51.964;5.660;2023-10-13T16:16:51;22.0;65.6
78475;SHT31;67766;51.964;5.660;2023-10-13T16:19:22;22.0;65.3
78475;SHT31;67766;51.964;5.660;2023-10-13T16:21:53;22.1;65.1
78475;SHT31;67766;51.964;5.660;2023-10-13T16:24:26;22.1;64.7
78475;SHT31;67766;51.964;5.660;2023-10-13T16:26:56;22.0;64.6
78475;SHT31;67766;51.964;5.660;2023-10-13T16:29:26;22.0;64.2
78475;SHT31;67766;51.964;5.660;2023-10-13T16:32:00;22.0;64.0
78475;SHT31;67766;51.964;5.660;2023-10-13T16:34:30;22.0;64.1
78475;SHT31;67766;51.964;5.660;2023-10-13T16:37:01;22.0;64.1
78475;SHT31;67766;51.964;5.660;2023-10-13T16:39:32;22.1;64.0
78475;SHT31;67766;51.964;5.660;2023-10-13T16:42:08;22.1;63.8
78475;SHT31;67766;51.964;5.660;2023-10-13T16:44:38;22.1;63.6
78475;SHT31;67766;51.964;5.660;2023-10-13T16:47:08;22.2;63.7
78475;SHT31;67766;51.964;5.660;2023-10-13T16:49:43;22.2;63.5
78475;SHT31;67766;51.964;5.660;2023-10-13T16:52:14;22.2;63.3
78475;SHT31;67766;51.964;5.660;2023-10-13T16:54:43;22.2;63.3
78475;SHT31;67766;51.964;5.660;2023-10-13T16:57:13;22.2;62.9
78475;SHT31;67766;51.964;5.660;2023-10-13T16:59:43;22.2;63.1
78475;SHT31;67766;51.964;5.660;2023-10-13T17:02:14;22.2;63.2
78475;SHT31;67766;51.964;5.660;2023-10-13T17:04:44;22.2;63.1
78475;SHT31;67766;51.964;5.660;2023-10-13T17:07:14;22.2;63.0